createdAt,value
2019-03-03T00:01:07.535Z,96932.00
2019-03-03T00:03:40.404Z,96933.00
2019-03-03T00:06:12.467Z,96926.00
2019-03-03T00:08:43.934Z,96933.00
2019-03-03T00:11:15.489Z,96946.00
2019-03-03T00:13:47.145Z,96938.00
2019-03-03T00:16:18.322Z,96927.00
2019-03-03T00:18:49.547Z,96927.00
2019-03-03T00:21:21.054Z,96934.00
2019-03-03T00:23:52.675Z,96944.00
2019-03-03T00:26:23.774Z,96938.00
2019-03-03T00:28:55.530Z,96943.00
2019-03-03T00:31:38.142Z,96943.00
2019-03-03T00:34:09.681Z,96935.00
2019-03-03T00:36:58.862Z,96933.00
2019-03-03T00:39:41.019Z,96934.00
2019-03-03T00:42:29.737Z,96929.00
2019-03-03T00:45:28.202Z,96938.00
2019-03-03T00:48:18.366Z,96927.00
2019-03-03T00:51:11.175Z,96917.00
2019-03-03T00:53:52.162Z,96936.00
2019-03-03T00:56:31.569Z,96932.00
2019-03-03T00:59:23.220Z,96930.00
2019-03-03T01:01:59.862Z,96923.00
2019-03-03T01:05:02.305Z,96926.00
2019-03-03T01:07:51.236Z,96926.00
2019-03-03T01:10:50.288Z,96920.00
2019-03-03T01:13:41.781Z,96925.00
2019-03-03T01:16:23.616Z,96919.00
2019-03-03T01:19:03.254Z,96924.00
2019-03-03T01:21:39.722Z,96914.00
2019-03-03T01:24:39.109Z,96914.00
2019-03-03T01:27:10.329Z,96908.00
2019-03-03T01:29:41.515Z,96909.00
2019-03-03T01:32:12.731Z,96908.00
2019-03-03T01:34:43.833Z,96908.00
2019-03-03T01:37:14.987Z,96905.00
2019-03-03T01:39:46.169Z,96905.00
2019-03-03T01:42:17.720Z,96901.00
2019-03-03T01:44:48.827Z,96914.00
2019-03-03T01:47:19.830Z,96899.00
2019-03-03T01:49:51.110Z,96897.00
2019-03-03T01:52:22.567Z,96908.00
2019-03-03T01:54:53.946Z,96908.00
2019-03-03T01:57:25.096Z,96893.00
2019-03-03T01:59:56.128Z,96906.00
2019-03-03T02:02:27.201Z,96902.00
2019-03-03T02:04:58.302Z,96900.00
2019-03-03T02:07:29.497Z,96896.00
2019-03-03T02:10:00.669Z,96902.00
2019-03-03T02:12:32.603Z,96899.00
2019-03-03T02:15:04.446Z,96904.00
2019-03-03T02:17:37.414Z,96903.00
2019-03-03T02:20:08.964Z,96893.00
2019-03-03T02:22:41.033Z,96895.00
2019-03-03T02:25:12.317Z,96901.00
2019-03-03T02:27:43.543Z,96904.00
2019-03-03T02:30:18.168Z,96905.00
2019-03-03T02:32:49.410Z,96905.00
2019-03-03T02:35:20.680Z,96907.00
2019-03-03T02:37:51.904Z,96906.00
2019-03-03T02:40:23.429Z,96902.00
2019-03-03T02:42:54.585Z,96898.00
2019-03-03T02:45:26.198Z,96894.00
2019-03-03T02:47:57.698Z,96909.00
2019-03-03T02:50:29.921Z,96893.00
2019-03-03T02:53:01.968Z,96903.00
2019-03-03T02:55:33.449Z,96903.00
2019-03-03T02:58:04.784Z,96903.00
2019-03-03T03:00:38.178Z,96909.00
2019-03-03T03:03:11.536Z,96909.00
2019-03-03T03:06:00.651Z,96902.00
2019-03-03T03:08:36.333Z,96907.00
2019-03-03T03:11:26.433Z,96893.00
2019-03-03T03:14:31.676Z,96894.00
2019-03-03T03:17:21.863Z,96900.00
2019-03-03T03:20:23.930Z,96882.00
2019-03-03T03:23:18.722Z,96885.00
2019-03-03T03:26:17.739Z,96883.00
2019-03-03T03:29:06.798Z,96894.00
2019-03-03T03:32:00.184Z,96893.00
2019-03-03T03:34:39.371Z,96889.00
2019-03-03T03:37:23.875Z,96872.00
2019-03-03T03:40:09.515Z,96887.00
2019-03-03T03:42:51.944Z,96872.00
2019-03-03T03:45:28.631Z,96895.00
2019-03-03T03:48:36.925Z,96884.00
2019-03-03T03:51:14.622Z,96883.00
2019-03-03T03:53:57.242Z,96873.00
2019-03-03T03:56:46.453Z,96872.00
2019-03-03T03:59:25.532Z,96876.00
2019-03-03T04:02:11.119Z,96877.00
2019-03-03T04:05:10.884Z,96882.00
2019-03-03T04:08:03.840Z,96872.00
2019-03-03T04:11:07.272Z,96872.00
2019-03-03T04:14:02.596Z,96884.00
2019-03-03T04:16:41.698Z,96867.00
2019-03-03T04:19:26.916Z,96864.00
2019-03-03T04:22:26.510Z,96864.00
2019-03-03T04:25:14.629Z,96865.00
2019-03-03T04:27:57.466Z,96862.00
2019-03-03T04:30:34.123Z,96859.00
2019-03-03T04:33:15.969Z,96864.00
2019-03-03T04:36:11.002Z,96847.00
2019-03-03T04:39:01.118Z,96840.00
2019-03-03T04:41:55.749Z,96842.00
2019-03-03T04:44:46.706Z,96834.00
2019-03-03T04:47:39.881Z,96827.00
2019-03-03T04:50:48.218Z,96841.00
2019-03-03T04:53:28.467Z,96844.00
2019-03-03T04:56:21.379Z,96833.00
2019-03-03T04:59:11.753Z,96841.00
2019-03-03T05:01:50.598Z,96847.00
2019-03-03T05:04:50.019Z,96851.00
2019-03-03T05:07:41.500Z,96837.00
2019-03-03T05:10:19.962Z,96840.00
2019-03-03T05:13:16.115Z,96839.00
2019-03-03T05:16:05.721Z,96831.00
2019-03-03T05:19:07.846Z,96836.00
2019-03-03T05:21:38.874Z,96819.00
2019-03-03T05:24:11.366Z,96812.00
2019-03-03T05:26:42.470Z,96812.00
2019-03-03T05:29:13.877Z,96812.00
2019-03-03T05:31:45.029Z,96810.00
2019-03-03T05:34:16.389Z,96808.00
2019-03-03T05:36:47.389Z,96798.00
2019-03-03T05:39:18.874Z,96790.00
2019-03-03T05:41:49.938Z,96789.00
2019-03-03T05:44:21.046Z,96789.00
2019-03-03T05:46:52.495Z,96796.00
2019-03-03T05:49:23.960Z,96792.00
2019-03-03T05:51:54.988Z,96790.00
2019-03-03T05:54:26.309Z,96786.00
2019-03-03T05:56:57.461Z,96788.00
2019-03-03T05:59:28.633Z,96799.00
2019-03-03T06:02:00.623Z,96787.00
2019-03-03T06:04:32.147Z,96778.00
2019-03-03T06:07:03.298Z,96786.00
2019-03-03T06:09:35.006Z,96778.00
2019-03-03T06:12:06.241Z,96774.00
2019-03-03T06:14:37.335Z,96768.00
2019-03-03T06:17:08.412Z,96770.00
2019-03-03T06:19:39.510Z,96755.00
2019-03-03T06:22:10.737Z,96766.00
2019-03-03T06:24:42.460Z,96778.00
2019-03-03T06:27:13.615Z,96766.00
2019-03-03T06:29:44.714Z,96768.00
2019-03-03T06:32:15.788Z,96749.00
2019-03-03T06:34:47.609Z,96757.00
2019-03-03T06:37:18.951Z,96746.00
2019-03-03T06:39:50.048Z,96751.00
2019-03-03T06:42:21.441Z,96758.00
2019-03-03T06:44:52.641Z,96746.00
2019-03-03T06:47:23.762Z,96751.00
2019-03-03T06:49:55.281Z,96749.00
2019-03-03T06:52:26.358Z,96752.00
2019-03-03T06:54:57.544Z,96748.00
2019-03-03T06:57:29.013Z,96765.00
2019-03-03T07:00:00.560Z,96745.00
2019-03-03T07:02:32.026Z,96744.00
2019-03-03T07:05:03.141Z,96746.00
2019-03-03T07:07:34.538Z,96753.00
2019-03-03T07:10:07.308Z,96753.00
2019-03-03T07:12:38.740Z,96758.00
2019-03-03T07:15:15.216Z,96749.00
2019-03-03T07:17:46.452Z,96759.00
2019-03-03T07:20:18.690Z,96753.00
2019-03-03T07:22:50.030Z,96761.00
2019-03-03T07:25:21.417Z,96767.00
2019-03-03T07:27:52.761Z,96751.00
2019-03-03T07:30:24.325Z,96762.00
2019-03-03T07:33:14.753Z,96764.00
2019-03-03T07:35:46.270Z,96766.00
2019-03-03T07:38:17.501Z,96765.00
2019-03-03T07:40:48.745Z,96764.00
2019-03-03T07:43:19.765Z,96756.00
2019-03-03T07:45:51.553Z,96758.00
2019-03-03T07:48:23.002Z,96741.00
2019-03-03T07:50:54.529Z,96759.00
2019-03-03T07:53:25.602Z,96761.00
2019-03-03T07:55:56.691Z,96759.00
2019-03-03T07:58:27.705Z,96750.00
2019-03-03T08:00:58.943Z,96758.00
2019-03-03T08:03:30.081Z,96734.00
2019-03-03T08:06:01.160Z,96751.00
2019-03-03T08:08:32.558Z,96761.00
2019-03-03T08:11:03.734Z,96763.00
2019-03-03T08:13:34.922Z,96754.00
2019-03-03T08:16:06.050Z,96747.00
2019-03-03T08:18:37.436Z,96754.00
2019-03-03T08:21:08.959Z,96751.00
2019-03-03T08:23:40.020Z,96745.00
2019-03-03T08:26:11.477Z,96741.00
2019-03-03T08:28:42.688Z,96733.00
2019-03-03T08:31:14.043Z,96743.00
2019-03-03T08:33:45.227Z,96751.00
2019-03-03T08:36:16.488Z,96728.00
2019-03-03T08:38:47.654Z,96746.00
2019-03-03T08:41:18.766Z,96746.00
2019-03-03T08:44:06.803Z,96756.00
2019-03-03T08:46:49.110Z,96751.00
2019-03-03T08:49:28.344Z,96751.00
2019-03-03T08:52:17.435Z,96752.00
2019-03-03T08:55:03.905Z,96762.00
2019-03-03T08:57:50.026Z,96749.00
2019-03-03T09:00:43.621Z,96752.00
2019-03-03T09:03:43.161Z,96765.00
2019-03-03T09:06:24.900Z,96754.00
2019-03-03T09:09:01.762Z,96770.00
2019-03-03T09:11:44.099Z,96757.00
2019-03-03T09:14:21.930Z,96743.00
2019-03-03T09:17:15.150Z,96747.00
2019-03-03T09:20:03.694Z,96751.00
2019-03-03T09:22:47.267Z,96759.00
2019-03-03T09:25:36.745Z,96743.00
2019-03-03T09:28:22.949Z,96753.00
2019-03-03T09:31:17.996Z,96751.00
2019-03-03T09:34:16.410Z,96763.00
2019-03-03T09:37:04.418Z,96602.00
2019-03-03T09:39:54.852Z,96763.00
2019-03-03T09:42:39.277Z,96753.00
2019-03-03T09:45:44.989Z,96758.00
2019-03-03T09:48:27.808Z,96740.00
2019-03-03T09:51:06.355Z,96753.00
2019-03-03T09:53:59.633Z,96767.00
2019-03-03T09:56:56.304Z,96750.00
2019-03-03T10:00:04.793Z,96776.00
2019-03-03T10:02:55.105Z,96760.00
2019-03-03T10:05:51.863Z,96741.00
2019-03-03T10:08:45.470Z,96722.00
2019-03-03T10:11:50.795Z,96723.00
2019-03-03T10:14:40.942Z,96731.00
2019-03-03T10:17:43.276Z,96730.00
2019-03-03T10:20:28.123Z,96748.00
2019-03-03T10:23:07.191Z,96726.00
2019-03-03T10:25:56.264Z,96713.00
2019-03-03T10:28:46.427Z,96718.00
2019-03-03T10:31:35.531Z,96722.00
2019-03-03T10:34:29.654Z,96724.00
2019-03-03T10:37:23.098Z,96720.00
2019-03-03T10:40:28.311Z,96725.00
2019-03-03T10:43:21.164Z,96724.00
2019-03-03T10:46:17.345Z,96720.00
2019-03-03T10:49:03.499Z,96747.00
2019-03-03T10:51:59.890Z,96753.00
2019-03-03T10:54:38.793Z,96748.00
2019-03-03T10:57:30.396Z,96757.00
2019-03-03T11:00:19.448Z,96740.00
2019-03-03T11:03:03.155Z,96736.00
2019-03-03T11:05:50.409Z,96735.00
2019-03-03T11:08:59.030Z,96739.00
2019-03-03T11:11:51.101Z,96744.00
2019-03-03T11:14:41.250Z,96742.00
2019-03-03T11:17:46.461Z,96757.00
2019-03-03T11:20:35.765Z,96751.00
2019-03-03T11:23:25.930Z,96741.00
2019-03-03T11:26:15.345Z,96745.00
2019-03-03T11:28:58.429Z,96748.00
2019-03-03T11:31:47.601Z,96745.00
2019-03-03T11:34:43.653Z,96735.00
2019-03-03T11:37:27.048Z,96731.00
2019-03-03T11:40:08.986Z,96739.00
2019-03-03T11:43:17.687Z,96742.00
2019-03-03T11:45:58.229Z,96713.00
2019-03-03T11:48:47.292Z,96723.00
2019-03-03T11:51:46.392Z,96716.00
2019-03-03T11:54:24.772Z,96714.00
2019-03-03T11:57:01.110Z,96718.00
2019-03-03T11:59:51.690Z,96727.00
2019-03-03T12:02:41.777Z,96712.00
2019-03-03T12:05:44.258Z,96705.00
2019-03-03T12:08:27.948Z,96713.00
2019-03-03T12:11:14.931Z,96723.00
2019-03-03T12:14:08.334Z,96716.00
2019-03-03T12:16:53.182Z,96715.00
2019-03-03T12:19:32.454Z,96703.00
2019-03-03T12:22:18.995Z,96704.00
2019-03-03T12:25:12.159Z,96696.00
2019-03-03T12:27:55.885Z,96689.00
2019-03-03T12:30:49.166Z,96701.00
2019-03-03T12:33:26.774Z,96702.00
2019-03-03T12:36:19.590Z,96687.00
2019-03-03T12:39:10.074Z,96683.00
2019-03-03T12:41:59.574Z,96683.00
2019-03-03T12:44:49.726Z,96680.00
2019-03-03T12:47:31.658Z,96677.00
2019-03-03T12:50:24.773Z,96673.00
2019-03-03T12:53:14.931Z,96673.00
2019-03-03T12:55:51.886Z,96662.00
2019-03-03T12:58:43.149Z,96661.00
2019-03-03T13:01:36.080Z,96646.00
2019-03-03T13:04:30.618Z,96663.00
2019-03-03T13:07:20.013Z,96645.00
2019-03-03T13:10:08.873Z,96656.00
2019-03-03T13:12:50.565Z,96639.00
2019-03-03T13:15:50.144Z,96641.00
2019-03-03T13:18:45.612Z,96654.00
2019-03-03T13:21:31.883Z,96645.00
2019-03-03T13:24:34.700Z,96641.00
2019-03-03T13:27:17.463Z,96636.00
2019-03-03T13:30:09.757Z,96630.00
2019-03-03T13:32:56.832Z,96631.00
2019-03-03T13:35:44.874Z,96636.00
2019-03-03T13:38:28.630Z,96652.00
2019-03-03T13:41:06.723Z,96649.00
2019-03-03T13:43:37.917Z,96641.00
2019-03-03T13:46:09.214Z,96643.00
2019-03-03T13:48:41.009Z,96633.00
2019-03-03T13:51:12.664Z,96616.00
2019-03-03T13:53:44.468Z,96623.00
2019-03-03T13:56:15.712Z,96622.00
2019-03-03T13:58:47.024Z,96619.00
2019-03-03T14:01:18.823Z,96610.00
2019-03-03T14:03:50.130Z,96603.00
2019-03-03T14:06:21.537Z,96613.00
2019-03-03T14:08:52.722Z,96615.00
2019-03-03T14:11:28.796Z,96480.00
2019-03-03T14:14:00.113Z,96628.00
2019-03-03T14:16:31.281Z,96600.00
2019-03-03T14:19:02.476Z,96601.00
2019-03-03T14:21:33.630Z,96614.00
2019-03-03T14:24:05.651Z,96617.00
2019-03-03T14:26:36.933Z,96598.00
2019-03-03T14:29:08.206Z,96603.00
2019-03-03T14:31:39.444Z,96599.00
2019-03-03T14:34:10.667Z,96588.00
2019-03-03T14:36:42.096Z,96601.00
2019-03-03T14:39:13.454Z,96588.00
2019-03-03T14:41:44.755Z,96577.00
2019-03-03T14:44:15.949Z,96578.00
2019-03-03T14:46:47.179Z,96572.00
2019-03-03T14:49:18.816Z,96570.00
2019-03-03T14:51:50.489Z,96569.00
2019-03-03T14:54:21.982Z,96568.00
2019-03-03T14:56:53.142Z,96564.00
2019-03-03T14:59:24.323Z,96560.00
2019-03-03T15:01:58.205Z,96562.00
2019-03-03T15:04:29.685Z,96552.00
2019-03-03T15:07:00.895Z,96560.00
2019-03-03T15:09:32.134Z,96545.00
2019-03-03T15:12:03.376Z,96549.00
2019-03-03T15:14:34.695Z,96524.00
2019-03-03T15:17:06.507Z,96538.00
2019-03-03T15:19:37.664Z,96545.00
2019-03-03T15:22:09.215Z,96543.00
2019-03-03T15:24:40.448Z,96530.00
2019-03-03T15:27:12.241Z,96535.00
2019-03-03T15:29:43.497Z,96531.00
2019-03-03T15:32:14.699Z,96534.00
2019-03-03T15:34:46.152Z,96531.00
2019-03-03T15:37:18.110Z,96530.00
2019-03-03T15:39:49.284Z,96530.00
2019-03-03T15:42:20.551Z,96525.00
2019-03-03T15:44:52.046Z,96526.00
2019-03-03T15:47:23.243Z,96522.00
2019-03-03T15:49:55.258Z,96515.00
2019-03-03T15:52:26.918Z,96512.00
2019-03-03T15:54:58.020Z,96512.00
2019-03-03T15:57:29.673Z,96517.00
2019-03-03T16:00:00.926Z,96516.00
2019-03-03T16:02:32.809Z,96509.00
2019-03-03T16:05:04.761Z,96509.00
2019-03-03T16:07:35.906Z,96510.00
2019-03-03T16:10:08.725Z,96505.00
2019-03-03T16:12:40.023Z,96520.00
2019-03-03T16:15:13.480Z,96514.00
2019-03-03T16:17:44.708Z,96517.00
2019-03-03T16:20:18.659Z,96514.00
2019-03-03T16:22:50.251Z,96509.00
2019-03-03T16:25:21.764Z,96515.00
2019-03-03T16:27:53.358Z,96503.00
2019-03-03T16:30:25.075Z,96492.00
2019-03-03T16:32:56.278Z,96504.00
2019-03-03T16:35:27.502Z,96500.00
2019-03-03T16:37:58.799Z,96477.00
2019-03-03T16:40:39.334Z,96487.00
2019-03-03T16:43:03.188Z,96489.00
2019-03-03T16:45:34.735Z,96486.00
2019-03-03T16:48:06.074Z,96471.00
2019-03-03T16:50:37.281Z,96462.00
2019-03-03T16:53:08.575Z,96471.00
2019-03-03T16:55:40.050Z,96464.00
2019-03-03T16:58:11.346Z,96434.00
2019-03-03T17:00:42.665Z,96451.00
2019-03-03T17:03:15.098Z,96459.00
2019-03-03T17:05:46.951Z,96438.00
2019-03-03T17:08:18.171Z,96447.00
2019-03-03T17:10:49.337Z,96445.00
2019-03-03T17:13:20.664Z,96436.00
2019-03-03T17:15:52.035Z,96436.00
2019-03-03T17:18:23.250Z,96437.00
2019-03-03T17:20:54.505Z,96438.00
2019-03-03T17:23:26.135Z,96451.00
2019-03-03T17:25:57.529Z,96441.00
2019-03-03T17:28:28.726Z,96440.00
2019-03-03T17:30:59.796Z,96446.00
2019-03-03T17:33:30.851Z,96445.00
2019-03-03T17:36:02.075Z,96452.00
2019-03-03T17:38:34.284Z,96440.00
2019-03-03T17:41:05.723Z,96438.00
2019-03-03T17:43:36.913Z,96438.00
2019-03-03T17:46:08.431Z,96445.00
2019-03-03T17:48:40.067Z,96438.00
2019-03-03T17:51:11.560Z,96440.00
2019-03-03T17:53:43.366Z,96425.00
2019-03-03T17:56:14.893Z,96431.00
2019-03-03T17:58:45.946Z,96436.00
2019-03-03T18:01:17.365Z,96424.00
2019-03-03T18:03:49.202Z,96405.00
2019-03-03T18:06:20.450Z,96430.00
2019-03-03T18:08:51.630Z,96417.00
2019-03-03T18:11:22.785Z,96427.00
2019-03-03T18:13:53.978Z,96418.00
2019-03-03T18:16:25.132Z,96419.00
2019-03-03T18:18:56.331Z,96418.00
2019-03-03T18:21:27.566Z,96417.00
2019-03-03T18:23:59.156Z,96407.00
2019-03-03T18:26:30.378Z,96405.00
2019-03-03T18:29:03.684Z,96396.00
2019-03-03T18:31:34.747Z,96406.00
2019-03-03T18:34:06.027Z,96398.00
2019-03-03T18:36:37.282Z,96396.00
2019-03-03T18:39:09.958Z,96397.00
2019-03-03T18:41:41.381Z,96402.00
2019-03-03T18:44:12.793Z,96408.00
2019-03-03T18:46:43.920Z,96401.00
2019-03-03T18:49:15.293Z,96395.00
2019-03-03T18:51:47.751Z,96404.00
2019-03-03T18:54:18.882Z,96395.00
2019-03-03T18:56:49.987Z,96386.00
2019-03-03T18:59:21.198Z,96383.00
2019-03-03T19:01:52.369Z,96380.00
2019-03-03T19:04:23.978Z,96371.00
2019-03-03T19:06:55.217Z,96373.00
2019-03-03T19:09:26.527Z,96365.00
2019-03-03T19:11:57.764Z,96366.00
2019-03-03T19:14:29.137Z,96366.00
2019-03-03T19:17:00.715Z,96365.00
2019-03-03T19:19:31.842Z,96368.00
2019-03-03T19:22:02.870Z,96368.00
2019-03-03T19:24:34.187Z,96358.00
2019-03-03T19:27:05.348Z,96375.00
2019-03-03T19:29:36.383Z,96358.00
2019-03-03T19:32:07.722Z,96363.00
2019-03-03T19:34:38.984Z,96364.00
2019-03-03T19:37:10.477Z,96356.00
2019-03-03T19:39:41.951Z,96348.00
2019-03-03T19:42:13.168Z,96349.00
2019-03-03T19:44:44.354Z,96330.00
2019-03-03T19:47:15.917Z,96352.00
2019-03-03T19:49:47.172Z,96355.00
2019-03-03T19:52:18.405Z,96341.00
2019-03-03T19:54:49.599Z,96351.00
2019-03-03T19:57:21.050Z,96349.00
2019-03-03T19:59:52.243Z,96336.00
2019-03-03T20:02:23.426Z,96333.00
2019-03-03T20:04:54.550Z,96323.00
2019-03-03T20:07:25.721Z,96319.00
2019-03-03T20:09:58.440Z,96312.00
2019-03-03T20:12:30.059Z,96302.00
2019-03-03T20:15:01.505Z,96308.00
2019-03-03T20:17:34.342Z,96305.00
2019-03-03T20:20:07.139Z,96304.00
2019-03-03T20:22:39.559Z,96299.00
2019-03-03T20:25:11.467Z,96310.00
2019-03-03T20:27:42.797Z,96293.00
2019-03-03T20:30:17.346Z,96293.00
2019-03-03T20:32:48.586Z,96295.00
2019-03-03T20:35:19.855Z,96282.00
2019-03-03T20:37:51.115Z,96280.00
2019-03-03T20:40:22.628Z,96286.00
2019-03-03T20:42:53.914Z,96293.00
2019-03-03T20:45:25.971Z,96287.00
2019-03-03T20:47:57.532Z,96287.00
2019-03-03T20:50:28.797Z,96283.00
2019-03-03T20:53:00.024Z,96278.00
2019-03-03T20:55:31.324Z,96271.00
2019-03-03T20:58:13.906Z,96261.00
2019-03-03T21:00:35.539Z,96272.00
2019-03-03T21:03:06.783Z,96273.00
2019-03-03T21:05:37.978Z,96250.00
2019-03-03T21:08:09.219Z,96246.00
2019-03-03T21:10:40.766Z,96243.00
2019-03-03T21:13:12.010Z,96234.00
2019-03-03T21:15:43.612Z,96222.00
2019-03-03T21:18:14.774Z,96227.00
2019-03-03T21:20:46.076Z,96229.00
2019-03-03T21:23:17.254Z,96220.00
2019-03-03T21:25:48.426Z,96219.00
2019-03-03T21:28:19.438Z,96209.00
2019-03-03T21:30:50.542Z,96216.00
2019-03-03T21:33:22.088Z,96223.00
2019-03-03T21:35:53.474Z,96222.00
2019-03-03T21:38:24.943Z,96195.00
2019-03-03T21:40:56.058Z,96214.00
2019-03-03T21:43:27.141Z,96204.00
2019-03-03T21:45:58.835Z,96190.00
2019-03-03T21:48:30.113Z,96186.00
2019-03-03T21:51:01.222Z,96193.00
2019-03-03T21:53:32.959Z,96177.00
2019-03-03T21:56:04.163Z,96177.00
2019-03-03T21:58:35.242Z,96161.00
2019-03-03T22:01:07.786Z,96158.00
2019-03-03T22:03:39.197Z,96159.00
2019-03-03T22:06:10.694Z,96146.00
2019-03-03T22:08:41.858Z,96153.00
2019-03-03T22:11:13.020Z,96157.00
2019-03-03T22:13:44.275Z,96131.00
2019-03-03T22:16:15.435Z,96126.00
2019-03-03T22:18:46.576Z,96138.00
2019-03-03T22:21:17.771Z,96139.00
2019-03-03T22:23:48.864Z,96148.00
2019-03-03T22:26:20.167Z,96145.00
2019-03-03T22:28:51.336Z,96156.00
2019-03-03T22:31:22.579Z,96159.00
2019-03-03T22:33:53.685Z,96166.00
2019-03-03T22:36:25.054Z,96160.00
2019-03-03T22:38:56.164Z,96165.00
2019-03-03T22:41:27.261Z,96159.00
2019-03-03T22:43:58.352Z,96157.00
2019-03-03T22:46:29.605Z,96168.00
2019-03-03T22:49:00.769Z,96158.00
2019-03-03T22:51:32.131Z,96147.00
2019-03-03T22:54:03.151Z,96153.00
2019-03-03T22:56:34.244Z,96142.00
2019-03-03T22:59:05.486Z,96144.00
2019-03-03T23:01:41.403Z,96144.00
2019-03-03T23:04:53.794Z,96151.00
2019-03-03T23:08:04.086Z,96144.00
2019-03-03T23:11:37.367Z,96123.00
2019-03-03T23:14:29.874Z,96119.00
2019-03-03T23:17:35.539Z,96107.00
2019-03-03T23:20:46.476Z,96121.00
2019-03-03T23:24:11.191Z,96115.00
2019-03-03T23:26:43.301Z,96092.00
2019-03-03T23:29:14.312Z,96111.00
2019-03-03T23:31:45.915Z,96087.00
2019-03-03T23:34:17.365Z,96094.00
2019-03-03T23:36:48.673Z,96097.00
2019-03-03T23:39:20.087Z,96097.00
2019-03-03T23:41:51.151Z,96101.00
2019-03-03T23:44:22.238Z,96113.00
2019-03-03T23:46:53.325Z,96105.00
2019-03-03T23:49:24.332Z,96106.00
2019-03-03T23:51:55.440Z,96103.00
2019-03-03T23:54:26.447Z,96090.00
2019-03-03T23:56:57.475Z,96092.00
2019-03-03T23:59:28.479Z,96079.00
